createdAt,value
2023-03-15T00:02:41.332Z,3.97
2023-03-15T00:06:42.781Z,3.87
2023-03-15T00:10:46.422Z,4.67
2023-03-15T00:14:47.407Z,4.10
2023-03-15T00:18:48.661Z,4.40
2023-03-15T00:22:49.635Z,4.23
2023-03-15T00:26:50.657Z,4.03
2023-03-15T00:31:12.564Z,4.07
2023-03-15T00:35:14.189Z,4.20
2023-03-15T00:39:15.473Z,6.47
2023-03-15T00:43:17.251Z,4.00
2023-03-15T00:47:18.254Z,5.83
2023-03-15T00:51:21.790Z,3.70
2023-03-15T00:55:22.994Z,4.63
2023-03-15T00:59:24.148Z,5.30
2023-03-15T01:03:25.161Z,3.97
2023-03-15T01:07:26.151Z,4.77
2023-03-15T01:11:27.940Z,5.00
2023-03-15T01:15:29.279Z,3.93
2023-03-15T01:19:30.405Z,4.40
2023-03-15T01:23:31.615Z,3.90
2023-03-15T01:27:32.796Z,3.73
2023-03-15T01:31:33.899Z,5.07
2023-03-15T01:35:35.015Z,4.57
2023-03-15T01:39:36.021Z,3.63
2023-03-15T01:43:37.187Z,3.80
2023-03-15T01:47:38.447Z,5.87
2023-03-15T01:51:52.238Z,4.33
2023-03-15T01:55:54.365Z,5.13
2023-03-15T01:59:59.348Z,3.73
2023-03-15T02:04:04.302Z,3.03
2023-03-15T02:08:08.110Z,4.00
2023-03-15T02:12:11.477Z,3.27
2023-03-15T02:16:12.869Z,4.20
2023-03-15T02:20:26.692Z,3.83
2023-03-15T02:24:42.472Z,3.87
2023-03-15T02:28:43.839Z,3.30
2023-03-15T02:32:45.144Z,2.87
2023-03-15T02:36:46.158Z,3.20
2023-03-15T02:40:47.838Z,3.20
2023-03-15T02:44:50.947Z,3.37
2023-03-15T02:48:53.533Z,3.33
2023-03-15T02:52:54.494Z,3.90
2023-03-15T02:56:55.501Z,4.87
2023-03-15T03:00:56.492Z,3.93
2023-03-15T03:04:57.424Z,3.77
2023-03-15T03:08:58.385Z,3.87
2023-03-15T03:12:59.359Z,5.13
2023-03-15T03:17:00.965Z,6.80
2023-03-15T03:21:06.805Z,4.10
2023-03-15T03:25:11.825Z,3.73
2023-03-15T03:29:15.537Z,4.20
2023-03-15T03:33:16.499Z,3.37
2023-03-15T03:37:18.831Z,3.93
2023-03-15T03:41:20.771Z,4.27
2023-03-15T03:45:21.866Z,4.13
2023-03-15T03:49:23.085Z,4.87
2023-03-15T03:53:24.236Z,4.60
2023-03-15T03:57:25.347Z,5.67
2023-03-15T04:01:26.654Z,5.37
2023-03-15T04:05:28.497Z,5.77
2023-03-15T04:09:29.895Z,5.93
2023-03-15T04:13:31.000Z,6.07
2023-03-15T04:17:32.074Z,6.17
2023-03-15T04:21:33.864Z,6.40
2023-03-15T04:25:34.814Z,7.03
2023-03-15T04:29:35.908Z,7.17
2023-03-15T04:33:36.916Z,7.03
2023-03-15T04:37:38.059Z,7.50
2023-03-15T04:41:39.204Z,7.37
2023-03-15T04:45:40.210Z,7.43
2023-03-15T04:49:41.156Z,6.43
2023-03-15T04:53:42.397Z,6.33
2023-03-15T04:57:43.330Z,7.33
2023-03-15T05:01:44.471Z,9.00
2023-03-15T05:05:45.524Z,6.83
2023-03-15T05:09:47.356Z,7.77
2023-03-15T05:13:48.462Z,7.40
2023-03-15T05:17:49.414Z,6.83
2023-03-15T05:21:50.391Z,7.70
2023-03-15T05:25:53.338Z,9.47
2023-03-15T05:29:54.354Z,8.63
2023-03-15T05:33:55.432Z,9.20
2023-03-15T05:37:56.366Z,9.07
2023-03-15T05:41:57.390Z,8.67
2023-03-15T05:45:58.407Z,8.23
2023-03-15T05:49:59.463Z,7.63
2023-03-15T05:54:00.409Z,6.40
2023-03-15T05:58:01.429Z,6.40
2023-03-15T06:02:03.317Z,5.30
2023-03-15T06:06:04.614Z,5.33
2023-03-15T06:10:06.635Z,4.80
2023-03-15T06:14:07.770Z,4.60
2023-03-15T06:18:09.152Z,5.13
2023-03-15T06:22:10.408Z,4.90
2023-03-15T06:26:11.510Z,5.43
2023-03-15T06:30:15.382Z,5.20
2023-03-15T06:34:16.761Z,5.50
2023-03-15T06:38:17.913Z,6.67
2023-03-15T06:42:19.284Z,7.20
2023-03-15T06:46:20.359Z,7.33
2023-03-15T06:50:21.538Z,7.73
2023-03-15T06:54:23.310Z,7.07
2023-03-15T06:58:24.456Z,5.87
2023-03-15T07:02:25.636Z,6.47
2023-03-15T07:06:27.809Z,6.30
2023-03-15T07:10:28.942Z,4.40
2023-03-15T07:14:29.925Z,4.70
2023-03-15T07:18:33.846Z,4.27
2023-03-15T07:22:35.061Z,5.00
2023-03-15T07:26:36.057Z,5.50
2023-03-15T07:30:37.312Z,5.83
2023-03-15T07:34:38.318Z,5.87
2023-03-15T07:38:41.367Z,6.23
2023-03-15T07:42:42.904Z,7.90
2023-03-15T07:46:44.107Z,5.73
2023-03-15T07:50:46.022Z,6.73
2023-03-15T07:54:47.196Z,6.50
2023-03-15T07:58:48.296Z,8.00
2023-03-15T08:02:50.044Z,7.03
2023-03-15T08:06:51.088Z,6.97
2023-03-15T08:10:52.275Z,6.70
2023-03-15T08:14:53.706Z,7.37
2023-03-15T08:18:54.734Z,6.20
2023-03-15T08:22:55.800Z,6.07
2023-03-15T08:26:56.835Z,5.50
2023-03-15T08:30:58.061Z,5.50
2023-03-15T08:34:59.270Z,5.23
2023-03-15T08:39:00.576Z,6.10
2023-03-15T08:43:01.876Z,5.70
2023-03-15T08:47:04.520Z,5.10
2023-03-15T08:51:06.532Z,4.87
2023-03-15T08:55:08.480Z,4.60
2023-03-15T08:59:12.775Z,4.63
2023-03-15T09:03:14.173Z,4.87
2023-03-15T09:07:15.326Z,4.57
2023-03-15T09:11:16.544Z,5.37
2023-03-15T09:15:18.918Z,5.87
2023-03-15T09:19:20.096Z,6.10
2023-03-15T09:23:21.435Z,6.70
2023-03-15T09:27:22.611Z,6.77
2023-03-15T09:31:24.494Z,6.50
2023-03-15T09:35:26.440Z,6.50
2023-03-15T09:39:27.453Z,7.03
2023-03-15T09:43:44.476Z,8.90
2023-03-15T09:47:52.254Z,7.53
2023-03-15T09:52:00.245Z,8.00
2023-03-15T09:56:01.466Z,6.27
2023-03-15T10:00:06.966Z,6.00
2023-03-15T10:04:24.306Z,6.80
2023-03-15T10:08:26.299Z,8.53
2023-03-15T10:12:30.696Z,6.47
2023-03-15T10:16:44.952Z,6.23
2023-03-15T10:20:50.129Z,4.80
2023-03-15T10:25:13.464Z,5.17
2023-03-15T10:29:17.943Z,4.57
2023-03-15T10:33:37.413Z,4.93
2023-03-15T10:37:38.580Z,4.50
2023-03-15T10:41:45.603Z,4.10
2023-03-15T10:46:05.631Z,3.87
2023-03-15T10:50:08.638Z,3.80
2023-03-15T10:54:16.649Z,3.43
2023-03-15T10:58:21.344Z,4.37
2023-03-15T11:02:24.561Z,4.33
2023-03-15T11:06:28.456Z,3.77
2023-03-15T11:10:33.243Z,4.03
2023-03-15T11:14:43.103Z,4.23
2023-03-15T11:18:57.304Z,4.43
2023-03-15T11:23:00.067Z,4.47
2023-03-15T11:27:04.464Z,4.90
2023-03-15T11:31:06.057Z,5.07
2023-03-15T11:35:23.183Z,4.30
2023-03-15T11:39:36.925Z,4.23
2023-03-15T11:43:44.510Z,5.23
2023-03-15T11:47:52.410Z,4.63
2023-03-15T11:51:55.634Z,4.17
2023-03-15T11:55:58.010Z,3.77
2023-03-15T12:00:19.521Z,4.20
2023-03-15T12:04:30.550Z,3.97
2023-03-15T12:08:53.178Z,4.13
2023-03-15T12:12:58.061Z,4.20
2023-03-15T12:17:27.962Z,4.13
2023-03-15T12:21:35.712Z,3.97
2023-03-15T12:25:54.123Z,4.67
2023-03-15T12:29:50.373Z,3.73
2023-03-15T12:33:58.024Z,3.70
2023-03-15T12:42:14.671Z,4.20
2023-03-15T12:46:42.656Z,4.70
2023-03-15T12:50:47.624Z,4.23
2023-03-15T12:54:55.412Z,3.87
2023-03-15T12:59:01.553Z,2.77
2023-03-15T13:03:21.478Z,3.27
2023-03-15T13:07:30.528Z,2.83
2023-03-15T13:12:07.634Z,3.63
2023-03-15T13:16:28.062Z,3.23
2023-03-15T13:20:41.985Z,3.83
2023-03-15T13:25:12.761Z,3.33
2023-03-15T13:29:20.426Z,3.63
2023-03-15T13:33:27.452Z,4.17
2023-03-15T13:37:31.387Z,3.83
2023-03-15T13:41:32.390Z,2.93
2023-03-15T13:45:37.130Z,3.33
2023-03-15T13:49:38.470Z,4.00
2023-03-15T13:53:49.606Z,3.50
2023-03-15T13:57:43.144Z,3.13
2023-03-15T14:01:44.283Z,3.33
2023-03-15T14:05:47.885Z,3.63
2023-03-15T14:09:49.043Z,3.03
2023-03-15T14:13:58.786Z,3.00
2023-03-15T14:18:12.740Z,3.10
2023-03-15T14:22:16.953Z,2.87
2023-03-15T14:26:21.752Z,2.60
2023-03-15T14:30:24.878Z,2.50
2023-03-15T14:34:38.737Z,2.73
2023-03-15T14:38:40.453Z,2.83
2023-03-15T14:42:43.062Z,3.10
2023-03-15T14:46:44.122Z,3.30
2023-03-15T14:50:45.446Z,3.47
2023-03-15T14:54:49.272Z,3.53
2023-03-15T14:58:52.273Z,3.40
2023-03-15T15:02:55.360Z,3.00
2023-03-15T15:06:57.382Z,3.50
2023-03-15T15:10:59.256Z,3.33
2023-03-15T15:15:00.221Z,3.47
2023-03-15T15:19:01.307Z,4.37
2023-03-15T15:23:02.851Z,3.67
2023-03-15T15:27:04.258Z,3.40
2023-03-15T15:31:06.616Z,4.40
2023-03-15T15:35:08.491Z,3.80
2023-03-15T15:39:25.673Z,4.10
2023-03-15T15:43:26.705Z,3.90
2023-03-15T15:47:27.811Z,5.63
2023-03-15T15:51:33.383Z,4.13
2023-03-15T15:55:36.343Z,3.77
2023-03-15T15:59:37.480Z,3.77
2023-03-15T16:03:38.983Z,3.47
2023-03-15T16:07:40.596Z,3.33
2023-03-15T16:11:42.246Z,2.93
2023-03-15T16:15:43.508Z,4.07
2023-03-15T16:19:44.663Z,2.90
2023-03-15T16:23:49.655Z,3.33
2023-03-15T16:27:52.164Z,3.70
2023-03-15T16:31:53.783Z,4.10
2023-03-15T16:35:55.853Z,4.27
2023-03-15T16:40:00.893Z,3.50
2023-03-15T16:44:02.080Z,3.30
2023-03-15T16:48:03.648Z,4.47
2023-03-15T16:52:07.408Z,3.80
2023-03-15T16:56:11.684Z,3.80
2023-03-15T17:00:16.645Z,4.43
2023-03-15T17:04:17.759Z,4.70
2023-03-15T17:08:20.427Z,4.13
2023-03-15T17:12:25.265Z,4.20
2023-03-15T17:16:26.946Z,4.67
2023-03-15T17:20:28.964Z,4.10
2023-03-15T17:24:31.543Z,4.90
2023-03-15T17:28:32.781Z,8.20
2023-03-15T17:32:34.141Z,8.80
2023-03-15T17:36:37.789Z,7.13
2023-03-15T17:40:39.375Z,6.30
2023-03-15T17:44:41.367Z,5.08
2023-03-15T17:48:42.722Z,5.10
2023-03-15T17:52:45.942Z,5.33
2023-03-15T17:56:47.093Z,5.90
2023-03-15T18:00:50.777Z,6.57
2023-03-15T18:04:52.311Z,6.27
2023-03-15T18:08:53.751Z,5.43
2023-03-15T18:12:54.910Z,4.90
2023-03-15T18:16:56.503Z,5.10
2023-03-15T18:20:57.636Z,6.70
2023-03-15T18:24:59.413Z,12.40
2023-03-15T18:29:01.388Z,11.30
2023-03-15T18:33:04.479Z,9.97
2023-03-15T18:37:05.537Z,8.40
2023-03-15T18:41:20.665Z,10.13
2023-03-15T18:45:28.604Z,11.50
2023-03-15T18:49:29.804Z,12.03
2023-03-15T18:53:31.127Z,12.17
2023-03-15T18:57:32.146Z,11.80
2023-03-15T19:01:33.883Z,10.00
2023-03-15T19:05:36.673Z,9.67
2023-03-15T19:09:37.898Z,10.30
2023-03-15T19:13:39.161Z,9.03
2023-03-15T19:17:41.599Z,10.70
2023-03-15T19:21:42.784Z,46.77
2023-03-15T19:25:44.719Z,35.43
2023-03-15T19:29:46.075Z,30.97
2023-03-15T19:33:47.340Z,26.12
2023-03-15T19:37:48.650Z,17.50
2023-03-15T19:41:49.930Z,19.30
2023-03-15T19:45:51.540Z,18.60
2023-03-15T19:49:54.321Z,28.80
2023-03-15T19:53:56.051Z,21.57
2023-03-15T19:57:57.425Z,19.60
2023-03-15T20:01:58.785Z,14.90
2023-03-15T20:06:04.980Z,16.77
2023-03-15T20:10:08.362Z,18.80
2023-03-15T20:14:09.548Z,12.90
2023-03-15T20:18:12.780Z,12.00
2023-03-15T20:22:14.546Z,11.00
2023-03-15T20:26:17.520Z,12.97
2023-03-15T20:30:20.854Z,12.30
2023-03-15T20:34:22.294Z,13.63
2023-03-15T20:38:23.513Z,14.77
2023-03-15T20:42:24.627Z,15.33
2023-03-15T20:46:25.904Z,18.73
2023-03-15T20:50:26.847Z,18.20
2023-03-15T20:54:28.015Z,27.80
2023-03-15T20:58:29.543Z,25.33
2023-03-15T21:02:31.032Z,23.60
2023-03-15T21:06:32.898Z,20.03
2023-03-15T21:10:33.904Z,18.40
2023-03-15T21:14:35.168Z,20.77
2023-03-15T21:18:37.153Z,23.47
2023-03-15T21:22:38.078Z,25.73
2023-03-15T21:26:39.201Z,24.67
2023-03-15T21:30:40.434Z,21.13
2023-03-15T21:34:41.394Z,16.37
2023-03-15T21:38:42.545Z,19.90
2023-03-15T21:42:45.450Z,18.00
2023-03-15T21:46:46.587Z,15.83
2023-03-15T21:50:51.131Z,52.37
2023-03-15T21:54:53.435Z,20.20
2023-03-15T21:58:55.105Z,18.77
2023-03-15T22:02:56.274Z,19.90
2023-03-15T22:06:57.383Z,19.20
2023-03-15T22:10:58.722Z,25.60
2023-03-15T22:15:05.627Z,23.07
2023-03-15T22:19:03.323Z,20.70
2023-03-15T22:23:04.928Z,21.37
2023-03-15T22:27:06.172Z,20.97
2023-03-15T22:31:10.919Z,18.50
2023-03-15T22:35:13.330Z,16.90
2023-03-15T22:39:14.526Z,16.73
2023-03-15T22:43:15.942Z,16.93
2023-03-15T22:47:16.890Z,17.30
2023-03-15T22:51:17.988Z,14.43
2023-03-15T22:55:20.214Z,14.47
2023-03-15T22:59:23.261Z,12.77
2023-03-15T23:03:25.612Z,11.47
2023-03-15T23:07:26.577Z,12.23
2023-03-15T23:11:27.816Z,11.80
2023-03-15T23:15:28.898Z,11.57
2023-03-15T23:19:34.653Z,13.53
2023-03-15T23:23:38.177Z,12.90
2023-03-15T23:27:39.940Z,11.53
2023-03-15T23:31:42.359Z,12.47
2023-03-15T23:35:43.650Z,13.33
2023-03-15T23:39:45.198Z,15.67
2023-03-15T23:43:46.273Z,15.50
2023-03-15T23:47:47.236Z,18.30
2023-03-15T23:51:48.275Z,16.50
2023-03-15T23:55:50.605Z,17.27
2023-03-15T23:59:52.143Z,16.83
